sensor_id;sensor_type;location;lat;lon;timestamp;pressure;altitude;pressure_sealevel;temperature;humidity
69318;BME280;56457;52.190;4.440;2022-07-29T00:00:08;101898.38;;;18.06;60.17
69318;BME280;56457;52.190;4.440;2022-07-29T00:01:14;101907.06;;;18.14;60.41
69318;BME280;56457;52.190;4.440;2022-07-29T00:02:14;101908.81;;;18.15;60.03
69318;BME280;56457;52.190;4.440;2022-07-29T00:03:14;101917.97;;;18.01;61.09
69318;BME280;56457;52.190;4.440;2022-07-29T00:04:15;101909.94;;;18.03;60.43
69318;BME280;56457;52.190;4.440;2022-07-29T00:05:15;101903.78;;;18.02;60.53
69318;BME280;56457;52.190;4.440;2022-07-29T00:06:16;101906.16;;;18.13;60.45
69318;BME280;56457;52.190;4.440;2022-07-29T00:07:16;101897.31;;;18.14;60.23
69318;BME280;56457;52.190;4.440;2022-07-29T00:08:17;101898.97;;;18.18;60.34
69318;BME280;56457;52.190;4.440;2022-07-29T00:09:17;101893.94;;;18.06;60.82
69318;BME280;56457;52.190;4.440;2022-07-29T00:10:17;101897.47;;;18.08;60.50
69318;BME280;56457;52.190;4.440;2022-07-29T00:11:18;101891.28;;;18.08;60.78
69318;BME280;56457;52.190;4.440;2022-07-29T00:12:20;101901.78;;;18.12;60.41
69318;BME280;56457;52.190;4.440;2022-07-29T00:13:21;101898.47;;;18.01;61.28
69318;BME280;56457;52.190;4.440;2022-07-29T00:14:21;101898.25;;;18.12;60.12
69318;BME280;56457;52.190;4.440;2022-07-29T00:15:21;101888.63;;;18.08;60.23
69318;BME280;56457;52.190;4.440;2022-07-29T00:16:22;101891.53;;;17.95;61.12
69318;BME280;56457;52.190;4.440;2022-07-29T00:17:23;101903.88;;;17.98;60.80
69318;BME280;56457;52.190;4.440;2022-07-29T00:18:24;101896.78;;;17.98;61.11
69318;BME280;56457;52.190;4.440;2022-07-29T00:19:24;101894.81;;;18.07;60.53
69318;BME280;56457;52.190;4.440;2022-07-29T00:20:25;101896.88;;;17.94;60.56
69318;BME280;56457;52.190;4.440;2022-07-29T00:21:25;101887.97;;;17.95;60.48
69318;BME280;56457;52.190;4.440;2022-07-29T00:22:25;101891.69;;;17.88;61.16
69318;BME280;56457;52.190;4.440;2022-07-29T00:23:26;101891.47;;;17.98;60.79
69318;BME280;56457;52.190;4.440;2022-07-29T00:24:26;101891.28;;;18.06;60.55
69318;BME280;56457;52.190;4.440;2022-07-29T00:25:26;101889.50;;;18.08;60.82
69318;BME280;56457;52.190;4.440;2022-07-29T00:26:27;101889.22;;;18.20;60.00
69318;BME280;56457;52.190;4.440;2022-07-29T00:27:31;101884.81;;;18.18;59.95
69318;BME280;56457;52.190;4.440;2022-07-29T00:28:31;101878.00;;;18.06;60.17
69318;BME280;56457;52.190;4.440;2022-07-29T00:29:32;101887.09;;;17.96;60.28
69318;BME280;56457;52.190;4.440;2022-07-29T00:30:32;101884.47;;;17.94;61.25
69318;BME280;56457;52.190;4.440;2022-07-29T00:31:32;101873.06;;;17.91;61.26
69318;BME280;56457;52.190;4.440;2022-07-29T00:32:33;101882.69;;;17.95;61.32
69318;BME280;56457;52.190;4.440;2022-07-29T00:33:33;101883.53;;;17.97;61.21
69318;BME280;56457;52.190;4.440;2022-07-29T00:34:34;101881.78;;;17.96;60.68
69318;BME280;56457;52.190;4.440;2022-07-29T00:35:53;101878.50;;;17.85;61.38
69318;BME280;56457;52.190;4.440;2022-07-29T00:36:53;101875.63;;;17.95;60.67
69318;BME280;56457;52.190;4.440;2022-07-29T00:37:54;101881.66;;;18.02;60.87
69318;BME280;56457;52.190;4.440;2022-07-29T00:38:54;101877.09;;;18.07;60.22
69318;BME280;56457;52.190;4.440;2022-07-29T00:39:55;101879.88;;;18.01;60.74
69318;BME280;56457;52.190;4.440;2022-07-29T00:40:55;101874.56;;;18.01;61.16
69318;BME280;56457;52.190;4.440;2022-07-29T00:41:55;101876.34;;;18.02;60.66
69318;BME280;56457;52.190;4.440;2022-07-29T00:42:56;101872.78;;;18.03;61.04
69318;BME280;56457;52.190;4.440;2022-07-29T00:43:56;101871.03;;;18.02;61.03
69318;BME280;56457;52.190;4.440;2022-07-29T00:44:56;101876.97;;;18.13;60.67
69318;BME280;56457;52.190;4.440;2022-07-29T00:45:57;101875.56;;;17.97;61.13
69318;BME280;56457;52.190;4.440;2022-07-29T00:46:57;101882.66;;;17.96;61.15
69318;BME280;56457;52.190;4.440;2022-07-29T00:47:58;101877.34;;;17.96;60.99
69318;BME280;56457;52.190;4.440;2022-07-29T00:48:58;101879.09;;;17.97;61.43
69318;BME280;56457;52.190;4.440;2022-07-29T00:49:58;101874.94;;;17.86;61.47
69318;BME280;56457;52.190;4.440;2022-07-29T00:51:01;101875.75;;;17.88;62.00
69318;BME280;56457;52.190;4.440;2022-07-29T00:52:03;101875.75;;;17.88;61.83
69318;BME280;56457;52.190;4.440;2022-07-29T00:53:06;101870.50;;;17.86;61.81
69318;BME280;56457;52.190;4.440;2022-07-29T00:54:07;101870.25;;;17.97;61.09
69318;BME280;56457;52.190;4.440;2022-07-29T00:55:12;101873.00;;;17.92;61.42
69318;BME280;56457;52.190;4.440;2022-07-29T00:56:13;101870.34;;;17.92;61.68
69318;BME280;56457;52.190;4.440;2022-07-29T00:57:14;101871.25;;;17.91;61.63
69318;BME280;56457;52.190;4.440;2022-07-29T00:58:14;101873.00;;;17.92;61.14
69318;BME280;56457;52.190;4.440;2022-07-29T00:59:14;101862.47;;;17.88;61.26
69318;BME280;56457;52.190;4.440;2022-07-29T01:00:18;101870.72;;;17.75;62.17
69318;BME280;56457;52.190;4.440;2022-07-29T01:01:19;101868.84;;;17.81;61.35
69318;BME280;56457;52.190;4.440;2022-07-29T01:02:19;101869.69;;;17.83;62.19
69318;BME280;56457;52.190;4.440;2022-07-29T01:03:19;101867.94;;;17.82;61.54
69318;BME280;56457;52.190;4.440;2022-07-29T01:04:23;101872.53;;;17.73;62.25
69318;BME280;56457;52.190;4.440;2022-07-29T01:05:25;101869.16;;;17.65;62.11
69318;BME280;56457;52.190;4.440;2022-07-29T01:06:26;101863.75;;;17.68;63.07
69318;BME280;56457;52.190;4.440;2022-07-29T01:07:27;101866.13;;;17.82;62.26
69318;BME280;56457;52.190;4.440;2022-07-29T01:08:30;101860.81;;;17.84;61.66
69318;BME280;56457;52.190;4.440;2022-07-29T01:09:32;101876.78;;;17.81;62.70
69318;BME280;56457;52.190;4.440;2022-07-29T01:10:34;101867.03;;;17.83;62.41
69318;BME280;56457;52.190;4.440;2022-07-29T01:11:38;101870.69;;;17.77;62.03
69318;BME280;56457;52.190;4.440;2022-07-29T01:12:39;101868.00;;;17.79;62.22
69318;BME280;56457;52.190;4.440;2022-07-29T01:13:41;101866.50;;;17.65;62.95
69318;BME280;56457;52.190;4.440;2022-07-29T01:14:42;101868.06;;;17.75;62.58
69318;BME280;56457;52.190;4.440;2022-07-29T01:15:56;101869.88;;;17.73;62.67
69318;BME280;56457;52.190;4.440;2022-07-29T01:17:01;101864.72;;;17.66;63.07
69318;BME280;56457;52.190;4.440;2022-07-29T01:18:46;101870.75;;;17.74;62.65
69318;BME280;56457;52.190;4.440;2022-07-29T01:21:18;101856.44;;;17.83;62.36
69318;BME280;56457;52.190;4.440;2022-07-29T01:22:29;101866.41;;;17.68;62.38
69318;BME280;56457;52.190;4.440;2022-07-29T01:26:29;101858.56;;;17.62;63.61
69318;BME280;56457;52.190;4.440;2022-07-29T01:30:03;101854.88;;;17.71;63.27
69318;BME280;56457;52.190;4.440;2022-07-29T01:31:05;101857.53;;;17.69;62.97
69318;BME280;56457;52.190;4.440;2022-07-29T01:32:20;101852.44;;;17.60;63.88
69318;BME280;56457;52.190;4.440;2022-07-29T01:33:25;101848.03;;;17.59;63.55
69318;BME280;56457;52.190;4.440;2022-07-29T01:34:54;101855.91;;;17.62;64.00
69318;BME280;56457;52.190;4.440;2022-07-29T01:35:56;101851.63;;;17.57;63.62
69318;BME280;56457;52.190;4.440;2022-07-29T01:37:06;101850.72;;;17.58;63.92
69318;BME280;56457;52.190;4.440;2022-07-29T01:38:12;101853.44;;;17.55;63.50
69318;BME280;56457;52.190;4.440;2022-07-29T01:40:19;101851.00;;;17.44;63.96
69318;BME280;56457;52.190;4.440;2022-07-29T01:41:22;101847.31;;;17.51;64.01
69318;BME280;56457;52.190;4.440;2022-07-29T01:42:45;101843.81;;;17.49;64.42
69318;BME280;56457;52.190;4.440;2022-07-29T01:44:01;101848.34;;;17.45;64.18
69318;BME280;56457;52.190;4.440;2022-07-29T01:45:18;101844.53;;;17.57;64.09
69318;BME280;56457;52.190;4.440;2022-07-29T01:46:49;101849.84;;;17.57;63.87
69318;BME280;56457;52.190;4.440;2022-07-29T01:48:07;101848.81;;;17.64;63.23
69318;BME280;56457;52.190;4.440;2022-07-29T01:49:16;101850.94;;;17.47;63.78
69318;BME280;56457;52.190;4.440;2022-07-29T01:50:19;101845.69;;;17.44;64.08
69318;BME280;56457;52.190;4.440;2022-07-29T01:51:47;101843.28;;;17.33;64.80
69318;BME280;56457;52.190;4.440;2022-07-29T01:52:56;101848.28;;;17.47;64.49
69318;BME280;56457;52.190;4.440;2022-07-29T01:54:08;101846.47;;;17.49;64.41
69318;BME280;56457;52.190;4.440;2022-07-29T01:55:15;101841.22;;;17.47;64.02
69318;BME280;56457;52.190;4.440;2022-07-29T01:56:18;101836.66;;;17.54;64.02
69318;BME280;56457;52.190;4.440;2022-07-29T01:57:21;101834.16;;;17.45;64.63
69318;BME280;56457;52.190;4.440;2022-07-29T01:58:27;101833.16;;;17.50;64.07
69318;BME280;56457;52.190;4.440;2022-07-29T01:59:29;101836.72;;;17.49;64.00
69318;BME280;56457;52.190;4.440;2022-07-29T02:00:32;101821.59;;;17.55;63.64
69318;BME280;56457;52.190;4.440;2022-07-29T02:01:35;101828.81;;;17.48;63.90
69318;BME280;56457;52.190;4.440;2022-07-29T02:02:37;101832.47;;;17.42;64.59
69318;BME280;56457;52.190;4.440;2022-07-29T02:03:41;101829.78;;;17.44;64.15
69318;BME280;56457;52.190;4.440;2022-07-29T02:04:44;101825.34;;;17.44;64.77
69318;BME280;56457;52.190;4.440;2022-07-29T02:05:49;101826.28;;;17.42;64.88
69318;BME280;56457;52.190;4.440;2022-07-29T02:06:52;101832.41;;;17.44;64.94
69318;BME280;56457;52.190;4.440;2022-07-29T02:07:54;101832.53;;;17.39;64.52
69318;BME280;56457;52.190;4.440;2022-07-29T02:08:57;101826.09;;;17.51;64.44
69318;BME280;56457;52.190;4.440;2022-07-29T02:10:00;101831.63;;;17.40;64.54
69318;BME280;56457;52.190;4.440;2022-07-29T02:11:02;101830.94;;;17.31;64.72
69318;BME280;56457;52.190;4.440;2022-07-29T02:12:06;101824.59;;;17.39;64.16
69318;BME280;56457;52.190;4.440;2022-07-29T02:13:09;101826.41;;;17.36;64.73
69318;BME280;56457;52.190;4.440;2022-07-29T02:14:13;101826.38;;;17.37;64.73
69318;BME280;56457;52.190;4.440;2022-07-29T02:15:16;101831.59;;;17.42;65.08
69318;BME280;56457;52.190;4.440;2022-07-29T02:16:18;101826.47;;;17.33;64.70
69318;BME280;56457;52.190;4.440;2022-07-29T02:17:25;101825.59;;;17.32;65.25
69318;BME280;56457;52.190;4.440;2022-07-29T02:18:27;101816.53;;;17.42;64.81
69318;BME280;56457;52.190;4.440;2022-07-29T02:19:30;101821.72;;;17.48;64.07
69318;BME280;56457;52.190;4.440;2022-07-29T02:20:33;101829.72;;;17.47;64.74
69318;BME280;56457;52.190;4.440;2022-07-29T02:21:35;101822.06;;;17.33;64.26
69318;BME280;56457;52.190;4.440;2022-07-29T02:22:37;101820.81;;;17.49;64.34
69318;BME280;56457;52.190;4.440;2022-07-29T02:23:39;101819.97;;;17.47;64.27
69318;BME280;56457;52.190;4.440;2022-07-29T02:24:41;101811.06;;;17.52;64.16
69318;BME280;56457;52.190;4.440;2022-07-29T02:25:42;101812.94;;;17.45;63.84
69318;BME280;56457;52.190;4.440;2022-07-29T02:26:44;101816.63;;;17.38;64.21
69318;BME280;56457;52.190;4.440;2022-07-29T02:27:46;101821.81;;;17.44;64.06
69318;BME280;56457;52.190;4.440;2022-07-29T02:28:50;101825.28;;;17.47;64.72
69318;BME280;56457;52.190;4.440;2022-07-29T02:29:52;101825.25;;;17.49;64.22
69318;BME280;56457;52.190;4.440;2022-07-29T02:30:55;101823.47;;;17.49;64.06
69318;BME280;56457;52.190;4.440;2022-07-29T02:31:58;101823.38;;;17.54;64.08
69318;BME280;56457;52.190;4.440;2022-07-29T02:33:00;101826.13;;;17.49;64.16
69318;BME280;56457;52.190;4.440;2022-07-29T02:34:03;101822.81;;;17.40;64.12
69318;BME280;56457;52.190;4.440;2022-07-29T02:35:07;101826.28;;;17.42;64.02
69318;BME280;56457;52.190;4.440;2022-07-29T02:36:08;101829.16;;;17.31;64.55
69318;BME280;56457;52.190;4.440;2022-07-29T02:37:10;101820.28;;;17.34;64.86
69318;BME280;56457;52.190;4.440;2022-07-29T02:38:14;101824.59;;;17.38;64.19
69318;BME280;56457;52.190;4.440;2022-07-29T02:39:34;101826.38;;;17.37;64.43
69318;BME280;56457;52.190;4.440;2022-07-29T02:40:34;101820.41;;;17.28;65.05
69318;BME280;56457;52.190;4.440;2022-07-29T02:41:43;101820.19;;;17.37;64.18
69318;BME280;56457;52.190;4.440;2022-07-29T02:42:46;101820.94;;;17.43;64.25
69318;BME280;56457;52.190;4.440;2022-07-29T02:43:48;101821.03;;;17.40;63.98
69318;BME280;56457;52.190;4.440;2022-07-29T02:44:50;101821.03;;;17.40;64.24
69318;BME280;56457;52.190;4.440;2022-07-29T02:45:51;101819.97;;;17.47;64.04
69318;BME280;56457;52.190;4.440;2022-07-29T02:46:58;101820.34;;;17.29;64.53
69318;BME280;56457;52.190;4.440;2022-07-29T02:48:08;101820.41;;;17.28;64.80
69318;BME280;56457;52.190;4.440;2022-07-29T02:50:32;101821.31;;;17.27;65.19
69318;BME280;56457;52.190;4.440;2022-07-29T02:51:53;101823.28;;;17.14;64.91
69318;BME280;56457;52.190;4.440;2022-07-29T02:52:57;101821.34;;;17.23;64.67
69318;BME280;56457;52.190;4.440;2022-07-29T02:54:01;101815.22;;;17.20;64.85
69318;BME280;56457;52.190;4.440;2022-07-29T02:56:30;101821.44;;;17.19;65.15
69318;BME280;56457;52.190;4.440;2022-07-29T02:57:51;101818.78;;;17.19;65.16
69318;BME280;56457;52.190;4.440;2022-07-29T02:58:57;101829.38;;;17.19;65.26
69318;BME280;56457;52.190;4.440;2022-07-29T03:00:02;101819.66;;;17.19;64.86
69318;BME280;56457;52.190;4.440;2022-07-29T03:01:12;101825.06;;;17.15;65.16
69318;BME280;56457;52.190;4.440;2022-07-29T03:02:14;101818.75;;;17.22;65.44
69318;BME280;56457;52.190;4.440;2022-07-29T03:03:18;101824.78;;;17.29;64.51
69318;BME280;56457;52.190;4.440;2022-07-29T03:04:19;101817.88;;;17.21;64.99
69318;BME280;56457;52.190;4.440;2022-07-29T03:05:21;101819.56;;;17.24;64.99
69318;BME280;56457;52.190;4.440;2022-07-29T03:06:25;101820.56;;;17.18;64.67
69318;BME280;56457;52.190;4.440;2022-07-29T03:07:27;101819.66;;;17.19;65.11
69318;BME280;56457;52.190;4.440;2022-07-29T03:08:29;101819.84;;;17.10;65.06
69318;BME280;56457;52.190;4.440;2022-07-29T03:09:31;101816.28;;;17.11;65.19
69318;BME280;56457;52.190;4.440;2022-07-29T03:10:32;101822.41;;;17.15;65.41
69318;BME280;56457;52.190;4.440;2022-07-29T03:11:33;101818.81;;;17.17;65.18
69318;BME280;56457;52.190;4.440;2022-07-29T03:12:35;101816.44;;;17.04;65.56
69318;BME280;56457;52.190;4.440;2022-07-29T03:13:36;101822.50;;;17.10;65.44
69318;BME280;56457;52.190;4.440;2022-07-29T03:14:36;101816.38;;;17.08;65.52
69318;BME280;56457;52.190;4.440;2022-07-29T03:15:38;101818.91;;;17.14;65.54
69318;BME280;56457;52.190;4.440;2022-07-29T03:16:38;101817.16;;;17.12;65.26
69318;BME280;56457;52.190;4.440;2022-07-29T03:17:39;101809.38;;;17.04;65.88
69318;BME280;56457;52.190;4.440;2022-07-29T03:18:40;101809.38;;;17.04;66.11
69318;BME280;56457;52.190;4.440;2022-07-29T03:19:41;101810.28;;;17.02;66.30
69318;BME280;56457;52.190;4.440;2022-07-29T03:20:42;101810.28;;;17.03;65.64
69318;BME280;56457;52.190;4.440;2022-07-29T03:21:42;101816.53;;;16.99;65.87
69318;BME280;56457;52.190;4.440;2022-07-29T03:22:44;101808.59;;;16.98;66.20
69318;BME280;56457;52.190;4.440;2022-07-29T03:23:47;101809.53;;;16.95;66.20
69318;BME280;56457;52.190;4.440;2022-07-29T03:24:47;101807.53;;;17.06;65.95
69318;BME280;56457;52.190;4.440;2022-07-29T03:25:49;101805.75;;;17.08;65.66
69318;BME280;56457;52.190;4.440;2022-07-29T03:26:49;101816.38;;;17.07;65.79
69318;BME280;56457;52.190;4.440;2022-07-29T03:27:50;101815.56;;;17.03;66.30
69318;BME280;56457;52.190;4.440;2022-07-29T03:28:50;101811.84;;;17.12;66.04
69318;BME280;56457;52.190;4.440;2022-07-29T03:29:50;101813.72;;;17.07;66.16
69318;BME280;56457;52.190;4.440;2022-07-29T03:30:51;101805.81;;;17.05;65.96
69318;BME280;56457;52.190;4.440;2022-07-29T03:31:51;101809.41;;;17.01;65.87
69318;BME280;56457;52.190;4.440;2022-07-29T03:32:52;101804.06;;;17.04;65.46
69318;BME280;56457;52.190;4.440;2022-07-29T03:33:52;101806.91;;;16.93;66.70
69318;BME280;56457;52.190;4.440;2022-07-29T03:34:53;101806.03;;;16.93;66.24
69318;BME280;56457;52.190;4.440;2022-07-29T03:35:53;101806.03;;;16.93;66.48
69318;BME280;56457;52.190;4.440;2022-07-29T03:36:54;101806.81;;;16.98;66.50
69318;BME280;56457;52.190;4.440;2022-07-29T03:37:54;101804.28;;;16.92;66.10
69318;BME280;56457;52.190;4.440;2022-07-29T03:38:55;101806.91;;;16.93;66.25
69318;BME280;56457;52.190;4.440;2022-07-29T03:39:56;101799.94;;;16.89;66.60
69318;BME280;56457;52.190;4.440;2022-07-29T03:41:01;101803.47;;;16.88;66.71
69318;BME280;56457;52.190;4.440;2022-07-29T03:42:05;101803.19;;;17.04;66.25
69318;BME280;56457;52.190;4.440;2022-07-29T03:43:08;101802.44;;;16.97;66.22
69318;BME280;56457;52.190;4.440;2022-07-29T03:44:10;101799.66;;;17.02;66.42
69318;BME280;56457;52.190;4.440;2022-07-29T03:45:17;101791.84;;;16.97;66.10
69318;BME280;56457;52.190;4.440;2022-07-29T03:46:20;101797.22;;;16.92;66.63
69318;BME280;56457;52.190;4.440;2022-07-29T03:47:25;101796.44;;;16.86;66.35
69318;BME280;56457;52.190;4.440;2022-07-29T03:48:28;101793.88;;;16.81;67.38
69318;BME280;56457;52.190;4.440;2022-07-29T03:49:32;101789.44;;;16.82;67.03
69318;BME280;56457;52.190;4.440;2022-07-29T03:50:36;101789.44;;;16.83;67.14
69318;BME280;56457;52.190;4.440;2022-07-29T03:51:37;101790.44;;;16.78;67.02
69318;BME280;56457;52.190;4.440;2022-07-29T03:52:38;101790.53;;;16.72;66.97
69318;BME280;56457;52.190;4.440;2022-07-29T03:53:38;101781.56;;;16.79;67.06
69318;BME280;56457;52.190;4.440;2022-07-29T03:54:39;101791.22;;;16.81;67.29
69318;BME280;56457;52.190;4.440;2022-07-29T03:55:41;101792.84;;;16.88;66.63
69318;BME280;56457;52.190;4.440;2022-07-29T03:56:45;101785.03;;;16.84;66.54
69318;BME280;56457;52.190;4.440;2022-07-29T03:57:48;101791.22;;;16.81;66.37
69318;BME280;56457;52.190;4.440;2022-07-29T03:58:52;101789.34;;;16.88;66.30
69318;BME280;56457;52.190;4.440;2022-07-29T03:59:54;101805.16;;;16.92;66.32
69318;BME280;56457;52.190;4.440;2022-07-29T04:00:55;101794.47;;;16.97;66.33
69318;BME280;56457;52.190;4.440;2022-07-29T04:01:56;101801.56;;;16.95;66.09
69318;BME280;56457;52.190;4.440;2022-07-29T04:02:58;101806.75;;;17.03;66.25
69318;BME280;56457;52.190;4.440;2022-07-29T04:03:59;101803.97;;;17.07;66.04
69318;BME280;56457;52.190;4.440;2022-07-29T04:05:00;101810.22;;;17.05;66.18
69318;BME280;56457;52.190;4.440;2022-07-29T04:06:04;101813.84;;;17.02;65.61
69318;BME280;56457;52.190;4.440;2022-07-29T04:07:06;101806.91;;;16.93;66.23
69318;BME280;56457;52.190;4.440;2022-07-29T04:08:06;101810.38;;;16.97;66.43
69318;BME280;56457;52.190;4.440;2022-07-29T04:09:07;101811.34;;;16.93;66.35
69318;BME280;56457;52.190;4.440;2022-07-29T04:10:08;101805.25;;;16.88;66.43
69318;BME280;56457;52.190;4.440;2022-07-29T04:11:09;101814.78;;;16.98;66.41
69318;BME280;56457;52.190;4.440;2022-07-29T04:12:09;101814.78;;;16.98;66.44
69318;BME280;56457;52.190;4.440;2022-07-29T04:13:10;101817.41;;;17.00;66.06
69318;BME280;56457;52.190;4.440;2022-07-29T04:14:10;101816.59;;;16.96;66.11
69318;BME280;56457;52.190;4.440;2022-07-29T04:15:11;101814.66;;;17.04;65.98
69318;BME280;56457;52.190;4.440;2022-07-29T04:16:12;101813.84;;;17.02;66.13
69318;BME280;56457;52.190;4.440;2022-07-29T04:17:12;101813.91;;;16.98;66.11
69318;BME280;56457;52.190;4.440;2022-07-29T04:18:12;101813.78;;;17.04;65.84
69318;BME280;56457;52.190;4.440;2022-07-29T04:19:13;101816.53;;;16.99;65.92
69318;BME280;56457;52.190;4.440;2022-07-29T04:20:13;101808.66;;;16.96;66.40
69318;BME280;56457;52.190;4.440;2022-07-29T04:21:14;101805.97;;;16.98;66.16
69318;BME280;56457;52.190;4.440;2022-07-29T04:22:14;101800.81;;;16.90;66.50
69318;BME280;56457;52.190;4.440;2022-07-29T04:23:15;101803.53;;;16.85;66.69
69318;BME280;56457;52.190;4.440;2022-07-29T04:24:18;101808.66;;;16.94;66.20
69318;BME280;56457;52.190;4.440;2022-07-29T04:25:19;101811.19;;;17.02;66.26
69318;BME280;56457;52.190;4.440;2022-07-29T04:26:20;101803.19;;;17.04;66.08
69318;BME280;56457;52.190;4.440;2022-07-29T04:27:20;101804.97;;;17.03;66.08
69318;BME280;56457;52.190;4.440;2022-07-29T04:28:21;101803.22;;;17.01;65.64
69318;BME280;56457;52.190;4.440;2022-07-29T04:29:21;101799.66;;;17.02;65.95
69318;BME280;56457;52.190;4.440;2022-07-29T04:30:22;101809.47;;;16.98;65.88
69318;BME280;56457;52.190;4.440;2022-07-29T04:31:22;101801.53;;;16.98;66.13
69318;BME280;56457;52.190;4.440;2022-07-29T04:32:23;101806.81;;;16.98;65.86
69318;BME280;56457;52.190;4.440;2022-07-29T04:33:23;101790.22;;;16.88;66.30
69318;BME280;56457;52.190;4.440;2022-07-29T04:34:24;101804.97;;;17.02;65.82
69318;BME280;56457;52.190;4.440;2022-07-29T04:35:25;101799.78;;;16.97;66.09
69318;BME280;56457;52.190;4.440;2022-07-29T04:36:25;101800.81;;;16.90;66.17
69318;BME280;56457;52.190;4.440;2022-07-29T04:37:26;101799.00;;;16.92;66.40
69318;BME280;56457;52.190;4.440;2022-07-29T04:38:26;101800.56;;;17.01;65.94
69318;BME280;56457;52.190;4.440;2022-07-29T04:39:27;101800.56;;;17.01;65.87
69318;BME280;56457;52.190;4.440;2022-07-29T04:40:27;101799.59;;;17.06;66.02
69318;BME280;56457;52.190;4.440;2022-07-29T04:41:28;101805.81;;;17.05;65.63
69318;BME280;56457;52.190;4.440;2022-07-29T04:42:28;101797.78;;;17.10;65.63
69318;BME280;56457;52.190;4.440;2022-07-29T04:43:28;101796.03;;;17.09;65.74
69318;BME280;56457;52.190;4.440;2022-07-29T04:44:29;101798.56;;;17.13;65.39
69318;BME280;56457;52.190;4.440;2022-07-29T04:45:29;101797.00;;;17.03;65.40
69318;BME280;56457;52.190;4.440;2022-07-29T04:46:30;101793.63;;;16.95;65.71
69318;BME280;56457;52.190;4.440;2022-07-29T04:47:30;101801.50;;;17.00;65.68
69318;BME280;56457;52.190;4.440;2022-07-29T04:48:30;101798.09;;;16.93;66.08
69318;BME280;56457;52.190;4.440;2022-07-29T04:49:31;101792.63;;;17.01;66.06
69318;BME280;56457;52.190;4.440;2022-07-29T04:50:31;101795.28;;;17.02;66.02
69318;BME280;56457;52.190;4.440;2022-07-29T04:51:31;101807.63;;;17.03;65.70
69318;BME280;56457;52.190;4.440;2022-07-29T04:52:32;101798.75;;;17.04;65.81
69318;BME280;56457;52.190;4.440;2022-07-29T04:53:33;101801.28;;;17.10;65.55
69318;BME280;56457;52.190;4.440;2022-07-29T04:54:33;101803.00;;;17.14;65.18
69318;BME280;56457;52.190;4.440;2022-07-29T04:55:34;101800.41;;;17.10;65.28
69318;BME280;56457;52.190;4.440;2022-07-29T04:56:36;101814.78;;;16.98;65.66
69318;BME280;56457;52.190;4.440;2022-07-29T04:57:36;101802.31;;;17.02;65.42
69318;BME280;56457;52.190;4.440;2022-07-29T04:58:37;101806.63;;;17.07;66.02
69318;BME280;56457;52.190;4.440;2022-07-29T04:59:37;101806.66;;;17.06;65.19
69318;BME280;56457;52.190;4.440;2022-07-29T05:00:38;101808.38;;;17.10;64.91
69318;BME280;56457;52.190;4.440;2022-07-29T05:01:39;101808.50;;;17.04;65.63
69318;BME280;56457;52.190;4.440;2022-07-29T05:02:39;101806.75;;;17.01;66.03
69318;BME280;56457;52.190;4.440;2022-07-29T05:03:40;101802.34;;;17.00;65.77
69318;BME280;56457;52.190;4.440;2022-07-29T05:04:40;101815.56;;;17.03;65.57
69318;BME280;56457;52.190;4.440;2022-07-29T05:05:41;101807.66;;;17.00;65.10
69318;BME280;56457;52.190;4.440;2022-07-29T05:06:42;101799.63;;;17.05;65.72
69318;BME280;56457;52.190;4.440;2022-07-29T05:07:42;101810.94;;;17.13;65.21
69318;BME280;56457;52.190;4.440;2022-07-29T05:08:43;101808.53;;;17.01;65.29
69318;BME280;56457;52.190;4.440;2022-07-29T05:09:43;101806.75;;;17.01;65.45
69318;BME280;56457;52.190;4.440;2022-07-29T05:10:44;101811.94;;;17.07;64.91
69318;BME280;56457;52.190;4.440;2022-07-29T05:11:45;101810.28;;;17.03;65.50
69318;BME280;56457;52.190;4.440;2022-07-29T05:12:46;101808.56;;;16.99;65.53
69318;BME280;56457;52.190;4.440;2022-07-29T05:13:46;101813.06;;;16.94;65.60
69318;BME280;56457;52.190;4.440;2022-07-29T05:14:47;101816.56;;;16.98;65.49
69318;BME280;56457;52.190;4.440;2022-07-29T05:15:47;101809.53;;;16.95;65.46
69318;BME280;56457;52.190;4.440;2022-07-29T05:25:05;101818.44;;;17.36;64.04
69318;BME280;56457;52.190;4.440;2022-07-29T05:26:05;101820.25;;;17.35;64.30
69318;BME280;56457;52.190;4.440;2022-07-29T05:27:06;101809.53;;;17.38;63.93
69318;BME280;56457;52.190;4.440;2022-07-29T05:28:06;101816.59;;;17.41;64.06
69318;BME280;56457;52.190;4.440;2022-07-29T05:29:07;101818.66;;;17.25;64.57
69318;BME280;56457;52.190;4.440;2022-07-29T05:30:07;101819.38;;;17.35;64.55
69318;BME280;56457;52.190;4.440;2022-07-29T05:31:08;101822.94;;;17.34;64.67
69318;BME280;56457;52.190;4.440;2022-07-29T05:32:08;101821.28;;;17.28;64.74
69318;BME280;56457;52.190;4.440;2022-07-29T05:33:09;101822.19;;;17.27;64.52
69318;BME280;56457;52.190;4.440;2022-07-29T05:34:09;101816.09;;;17.22;65.22
69318;BME280;56457;52.190;4.440;2022-07-29T05:35:10;101822.13;;;17.29;64.76
69318;BME280;56457;52.190;4.440;2022-07-29T05:36:11;101820.47;;;17.23;64.92
69318;BME280;56457;52.190;4.440;2022-07-29T05:37:12;101816.00;;;17.25;65.29
69318;BME280;56457;52.190;4.440;2022-07-29T05:38:13;101813.22;;;17.31;65.01
69318;BME280;56457;52.190;4.440;2022-07-29T05:39:13;101818.56;;;17.30;64.53
69318;BME280;56457;52.190;4.440;2022-07-29T05:40:14;101812.56;;;17.20;65.34
69318;BME280;56457;52.190;4.440;2022-07-29T05:41:14;101816.97;;;17.22;64.87
69318;BME280;56457;52.190;4.440;2022-07-29T05:42:15;101819.28;;;17.39;64.35
69318;BME280;56457;52.190;4.440;2022-07-29T05:43:15;101818.31;;;17.42;64.98
69318;BME280;56457;52.190;4.440;2022-07-29T05:44:15;101820.84;;;17.48;64.85
69318;BME280;56457;52.190;4.440;2022-07-29T05:45:16;101815.38;;;17.56;64.63
69318;BME280;56457;52.190;4.440;2022-07-29T05:46:16;101817.97;;;17.59;64.01